sensor_id;sensor_type;location;lat;lon;timestamp;pressure;altitude;pressure_sealevel;temperature;humidity
62980;BME280;49075;53.988;27.678;2024-01-06T00:02:08;980.2;;;-8.8;64
62980;BME280;49075;53.988;27.678;2024-01-06T00:06:36;980.3;;;-8.8;63.4
62980;BME280;49075;53.988;27.678;2024-01-06T00:11:50;980.4;;;-8.9;63.5
62980;BME280;49075;53.988;27.678;2024-01-06T00:17:06;980.4;;;-9;63.6
62980;BME280;49075;53.988;27.678;2024-01-06T00:21:48;980.5;;;-8.9;63.3
62980;BME280;49075;53.988;27.678;2024-01-06T00:27:30;980.5;;;-9;63.2
62980;BME280;49075;53.988;27.678;2024-01-06T00:31:56;980.6;;;-9.1;63.4
62980;BME280;49075;53.988;27.678;2024-01-06T00:36:46;980.6;;;-9.1;63.3
62980;BME280;49075;53.988;27.678;2024-01-06T00:41:36;980.6;;;-9.1;63
62980;BME280;49075;53.988;27.678;2024-01-06T00:46:36;980.6;;;-9.1;62.9
62980;BME280;49075;53.988;27.678;2024-01-06T00:51:36;980.6;;;-9.2;63.2
62980;BME280;49075;53.988;27.678;2024-01-06T00:57:10;980.7;;;-9.2;62.9
62980;BME280;49075;53.988;27.678;2024-01-06T01:01:48;980.8;;;-9.2;62.9
62980;BME280;49075;53.988;27.678;2024-01-06T01:06:56;980.8;;;-9.2;62.5
62980;BME280;49075;53.988;27.678;2024-01-06T01:11:56;980.9;;;-9.3;62.9
62980;BME280;49075;53.988;27.678;2024-01-06T01:16:48;981;;;-9.5;62.8
62980;BME280;49075;53.988;27.678;2024-01-06T01:21:56;981;;;-9.4;62.8
62980;BME280;49075;53.988;27.678;2024-01-06T01:26:48;981;;;-9.5;62.5
62980;BME280;49075;53.988;27.678;2024-01-06T01:31:58;981.1;;;-9.4;62.7
62980;BME280;49075;53.988;27.678;2024-01-06T01:36:36;981.1;;;-9.4;62.3
62980;BME280;49075;53.988;27.678;2024-01-06T01:41:36;981.1;;;-9.4;62.3
62980;BME280;49075;53.988;27.678;2024-01-06T01:46:36;981.2;;;-9.5;62.1
62980;BME280;49075;53.988;27.678;2024-01-06T01:51:36;981.1;;;-9.5;62.3
62980;BME280;49075;53.988;27.678;2024-01-06T01:56:36;981.2;;;-9.6;62.2
62980;BME280;49075;53.988;27.678;2024-01-06T02:01:36;981.2;;;-9.7;62.5
62980;BME280;49075;53.988;27.678;2024-01-06T02:07:00;981.3;;;-9.8;62.3
62980;BME280;49075;53.988;27.678;2024-01-06T02:11:36;981.4;;;-9.8;62.5
62980;BME280;49075;53.988;27.678;2024-01-06T02:16:46;981.4;;;-9.7;62.4
62980;BME280;49075;53.988;27.678;2024-01-06T02:21:36;981.4;;;-9.8;62.5
62980;BME280;49075;53.988;27.678;2024-01-06T02:26:56;981.4;;;-10;62.9
62980;BME280;49075;53.988;27.678;2024-01-06T02:31:36;981.3;;;-9.9;62.8
62980;BME280;49075;53.988;27.678;2024-01-06T02:36:36;981.3;;;-9.8;62.7
62980;BME280;49075;53.988;27.678;2024-01-06T02:41:48;981.3;;;-9.7;62.6
62980;BME280;49075;53.988;27.678;2024-01-06T02:46:48;981.3;;;-9.7;62.5
62980;BME280;49075;53.988;27.678;2024-01-06T02:51:56;981.3;;;-9.6;62.6
62980;BME280;49075;53.988;27.678;2024-01-06T02:56:46;981.3;;;-9.5;62.5
62980;BME280;49075;53.988;27.678;2024-01-06T03:01:54;981.4;;;-9.4;62.7
62980;BME280;49075;53.988;27.678;2024-01-06T03:06:36;981.4;;;-9.3;62.6
62980;BME280;49075;53.988;27.678;2024-01-06T03:12:30;981.4;;;-9.2;62.7
62980;BME280;49075;53.988;27.678;2024-01-06T03:16:56;981.4;;;-9.2;62.6
62980;BME280;49075;53.988;27.678;2024-01-06T03:22:10;981.4;;;-9.1;62.7
62980;BME280;49075;53.988;27.678;2024-01-06T03:26:36;981.5;;;-9.1;62.4
62980;BME280;49075;53.988;27.678;2024-01-06T03:31:48;981.5;;;-9.1;62.8
62980;BME280;49075;53.988;27.678;2024-01-06T03:36:46;981.5;;;-9.1;63
62980;BME280;49075;53.988;27.678;2024-01-06T03:42:04;981.5;;;-9;63.1
62980;BME280;49075;53.988;27.678;2024-01-06T03:47:00;981.5;;;-8.9;63
62980;BME280;49075;53.988;27.678;2024-01-06T03:51:36;981.5;;;-8.7;63.2
62980;BME280;49075;53.988;27.678;2024-01-06T03:56:44;981.5;;;-8.7;63.2
62980;BME280;49075;53.988;27.678;2024-01-06T04:01:36;981.6;;;-8.6;63.5
62980;BME280;49075;53.988;27.678;2024-01-06T04:06:58;981.6;;;-8.7;63.7
62980;BME280;49075;53.988;27.678;2024-01-06T04:11:44;981.6;;;-8.6;63.8
62980;BME280;49075;53.988;27.678;2024-01-06T04:16:56;981.6;;;-8.6;63.9
62980;BME280;49075;53.988;27.678;2024-01-06T04:21:36;981.6;;;-8.5;64
62980;BME280;49075;53.988;27.678;2024-01-06T04:27:08;981.6;;;-8.5;64
62980;BME280;49075;53.988;27.678;2024-01-06T04:32:04;981.7;;;-8.4;63.9
62980;BME280;49075;53.988;27.678;2024-01-06T04:36:56;981.7;;;-8.4;64.1
62980;BME280;49075;53.988;27.678;2024-01-06T04:41:56;981.7;;;-8.3;64.1
62980;BME280;49075;53.988;27.678;2024-01-06T04:46:36;981.8;;;-8.4;64.5
62980;BME280;49075;53.988;27.678;2024-01-06T04:51:36;981.9;;;-8.2;64.2
62980;BME280;49075;53.988;27.678;2024-01-06T04:56:56;981.9;;;-8.2;64.3
62980;BME280;49075;53.988;27.678;2024-01-06T05:01:56;981.9;;;-8.2;64.3
62980;BME280;49075;53.988;27.678;2024-01-06T05:06:36;982;;;-8.1;64.3
62980;BME280;49075;53.988;27.678;2024-01-06T05:11:56;982;;;-8.1;64.4
62980;BME280;49075;53.988;27.678;2024-01-06T05:17:08;982;;;-8.1;64.5
62980;BME280;49075;53.988;27.678;2024-01-06T05:21:48;982;;;-8;64.5
62980;BME280;49075;53.988;27.678;2024-01-06T05:27:08;982.1;;;-8;64.4
62980;BME280;49075;53.988;27.678;2024-01-06T05:31:56;982.1;;;-8;64.6
62980;BME280;49075;53.988;27.678;2024-01-06T05:36:56;982.1;;;-7.9;64.5
62980;BME280;49075;53.988;27.678;2024-01-06T05:42:20;982.1;;;-8;64.9
62980;BME280;49075;53.988;27.678;2024-01-06T05:46:52;982.2;;;-7.9;64.8
62980;BME280;49075;53.988;27.678;2024-01-06T05:51:44;982.2;;;-7.9;64.9
62980;BME280;49075;53.988;27.678;2024-01-06T05:56:46;982.2;;;-7.9;64.7
62980;BME280;49075;53.988;27.678;2024-01-06T06:01:44;982.2;;;-7.9;64.9
62980;BME280;49075;53.988;27.678;2024-01-06T06:06:44;982.3;;;-7.8;64.9
62980;BME280;49075;53.988;27.678;2024-01-06T06:11:36;982.4;;;-7.8;65
62980;BME280;49075;53.988;27.678;2024-01-06T06:16:36;982.4;;;-7.8;64.9
62980;BME280;49075;53.988;27.678;2024-01-06T06:21:36;982.5;;;-7.8;65.1
62980;BME280;49075;53.988;27.678;2024-01-06T06:26:36;982.5;;;-7.7;65
62980;BME280;49075;53.988;27.678;2024-01-06T06:31:58;982.5;;;-7.8;65.3
62980;BME280;49075;53.988;27.678;2024-01-06T06:36:48;982.5;;;-7.7;65.1
62980;BME280;49075;53.988;27.678;2024-01-06T06:41:36;982.6;;;-7.8;65.5
62980;BME280;49075;53.988;27.678;2024-01-06T06:46:36;982.6;;;-7.7;65.2
62980;BME280;49075;53.988;27.678;2024-01-06T06:51:36;982.7;;;-7.6;65.2
62980;BME280;49075;53.988;27.678;2024-01-06T06:56:56;982.7;;;-7.5;65
62980;BME280;49075;53.988;27.678;2024-01-06T07:02:06;982.7;;;-7.5;65
62980;BME280;49075;53.988;27.678;2024-01-06T07:06:36;982.8;;;-7.4;65
62980;BME280;49075;53.988;27.678;2024-01-06T07:12:06;982.8;;;-7.4;65
62980;BME280;49075;53.988;27.678;2024-01-06T07:16:56;982.8;;;-7.3;64.9
62980;BME280;49075;53.988;27.678;2024-01-06T07:21:36;982.9;;;-7.3;64.8
62980;BME280;49075;53.988;27.678;2024-01-06T07:27:16;982.9;;;-7.1;64.7
62980;BME280;49075;53.988;27.678;2024-01-06T07:31:36;982.9;;;-7.1;64.6
62980;BME280;49075;53.988;27.678;2024-01-06T07:36:36;982.9;;;-7.1;64.6
62980;BME280;49075;53.988;27.678;2024-01-06T07:41:36;983;;;-7;64.6
62980;BME280;49075;53.988;27.678;2024-01-06T07:46:46;983;;;-7;64.5
62980;BME280;49075;53.988;27.678;2024-01-06T07:51:36;983.1;;;-7.1;64.5
62980;BME280;49075;53.988;27.678;2024-01-06T07:56:36;983.1;;;-7;64.6
62980;BME280;49075;53.988;27.678;2024-01-06T08:01:44;983.1;;;-7;64.5
62980;BME280;49075;53.988;27.678;2024-01-06T08:06:36;983.2;;;-6.9;64.6
62980;BME280;49075;53.988;27.678;2024-01-06T08:11:56;983.2;;;-6.8;64.5
62980;BME280;49075;53.988;27.678;2024-01-06T08:16:36;983.2;;;-6.7;64.4
62980;BME280;49075;53.988;27.678;2024-01-06T08:21:56;983.3;;;-6.7;64.2
62980;BME280;49075;53.988;27.678;2024-01-06T08:26:56;983.3;;;-6.6;64.2
62980;BME280;49075;53.988;27.678;2024-01-06T08:31:56;983.4;;;-6.5;64.2
62980;BME280;49075;53.988;27.678;2024-01-06T08:36:48;983.4;;;-6.5;64.2
62980;BME280;49075;53.988;27.678;2024-01-06T08:41:36;983.4;;;-6.5;64.2
62980;BME280;49075;53.988;27.678;2024-01-06T08:46:36;983.4;;;-6.4;64.2
62980;BME280;49075;53.988;27.678;2024-01-06T08:52:08;983.4;;;-6.3;64.2
62980;BME280;49075;53.988;27.678;2024-01-06T08:57:16;983.5;;;-6.3;64.1
62980;BME280;49075;53.988;27.678;2024-01-06T09:01:44;983.5;;;-6.2;64.1
62980;BME280;49075;53.988;27.678;2024-01-06T09:06:36;983.5;;;-6.2;64.2
62980;BME280;49075;53.988;27.678;2024-01-06T09:11:36;983.5;;;-6.1;64.2
62980;BME280;49075;53.988;27.678;2024-01-06T09:16:36;983.6;;;-5.9;63.7
62980;BME280;49075;53.988;27.678;2024-01-06T09:21:48;983.5;;;-5.8;63.7
62980;BME280;49075;53.988;27.678;2024-01-06T09:26:48;983.5;;;-5.5;62.9
62980;BME280;49075;53.988;27.678;2024-01-06T09:32:20;983.6;;;-5.3;62.2
62980;BME280;49075;53.988;27.678;2024-01-06T09:36:36;983.7;;;-5.4;61.4
62980;BME280;49075;53.988;27.678;2024-01-06T09:41:36;983.7;;;-5.6;62.3
62980;BME280;49075;53.988;27.678;2024-01-06T09:47:28;983.7;;;-5.5;61.5
62980;BME280;49075;53.988;27.678;2024-01-06T09:51:48;983.8;;;-5.3;61.7
62980;BME280;49075;53.988;27.678;2024-01-06T09:56:36;983.7;;;-5.3;60.9
62980;BME280;49075;53.988;27.678;2024-01-06T10:01:56;983.8;;;-5.4;60.9
62980;BME280;49075;53.988;27.678;2024-01-06T10:06:56;983.8;;;-5.5;60.8
62980;BME280;49075;53.988;27.678;2024-01-06T10:11:50;983.8;;;-5.5;60.8
62980;BME280;49075;53.988;27.678;2024-01-06T10:16:36;983.7;;;-5.3;60.8
62980;BME280;49075;53.988;27.678;2024-01-06T10:21:36;983.8;;;-5.1;60.5
62980;BME280;49075;53.988;27.678;2024-01-06T10:26:48;983.8;;;-4.9;60.4
62980;BME280;49075;53.988;27.678;2024-01-06T10:31:56;983.9;;;-4.8;59.6
62980;BME280;49075;53.988;27.678;2024-01-06T10:36:36;983.8;;;-4.7;60
62980;BME280;49075;53.988;27.678;2024-01-06T10:42:04;983.8;;;-4.8;59.4
62980;BME280;49075;53.988;27.678;2024-01-06T10:47:04;983.9;;;-5;60.3
62980;BME280;49075;53.988;27.678;2024-01-06T10:51:37;983.9;;;-5;59.7
62980;BME280;49075;53.988;27.678;2024-01-06T10:56:46;983.8;;;-4.9;60
62980;BME280;49075;53.988;27.678;2024-01-06T11:01:56;983.8;;;-4.6;58.8
62980;BME280;49075;53.988;27.678;2024-01-06T11:07:18;983.7;;;-4.2;59.2
62980;BME280;49075;53.988;27.678;2024-01-06T11:11:44;983.7;;;-3.8;57.9
62980;BME280;49075;53.988;27.678;2024-01-06T11:17:48;983.7;;;-3.1;58
62980;BME280;49075;53.988;27.678;2024-01-06T11:22:19;983.7;;;-2;55.5
62980;BME280;49075;53.988;27.678;2024-01-06T11:27:06;983.6;;;0.5;54.6
62980;BME280;49075;53.988;27.678;2024-01-06T11:32:10;983.6;;;1.5;50.2
62980;BME280;49075;53.988;27.678;2024-01-06T11:37:06;983.7;;;0.1;54.7
62980;BME280;49075;53.988;27.678;2024-01-06T11:41:51;983.8;;;-1.2;53
62980;BME280;49075;53.988;27.678;2024-01-06T11:46:47;983.8;;;-2;54.8
62980;BME280;49075;53.988;27.678;2024-01-06T11:51:44;984;;;-2.8;54.8
62980;BME280;49075;53.988;27.678;2024-01-06T11:57:04;984;;;-3.6;55.3
62980;BME280;49075;53.988;27.678;2024-01-06T12:01:56;984.1;;;-4.1;55.9
62980;BME280;49075;53.988;27.678;2024-01-06T12:06:46;984.2;;;-4.5;56.2
62980;BME280;49075;53.988;27.678;2024-01-06T12:11:44;984.2;;;-4.8;56.5
62980;BME280;49075;53.988;27.678;2024-01-06T12:16:56;984.2;;;-4.9;56.6
62980;BME280;49075;53.988;27.678;2024-01-06T12:22:04;984.3;;;-4.8;56.4
62980;BME280;49075;53.988;27.678;2024-01-06T12:26:48;984.4;;;-4.7;56.5
62980;BME280;49075;53.988;27.678;2024-01-06T12:31:50;984.4;;;-4.6;56
62980;BME280;49075;53.988;27.678;2024-01-06T12:37:08;984.5;;;-4.5;56.4
62980;BME280;49075;53.988;27.678;2024-01-06T12:41:49;984.5;;;-4.4;55.7
62980;BME280;49075;53.988;27.678;2024-01-06T12:46:36;984.6;;;-4.5;56.4
62980;BME280;49075;53.988;27.678;2024-01-06T12:51:36;984.6;;;-4.8;55.8
62980;BME280;49075;53.988;27.678;2024-01-06T12:56:48;984.6;;;-5;56.8
62980;BME280;49075;53.988;27.678;2024-01-06T13:02:16;984.7;;;-5.3;56.7
62980;BME280;49075;53.988;27.678;2024-01-06T13:06:36;984.7;;;-5.4;57.1
62980;BME280;49075;53.988;27.678;2024-01-06T13:12:16;984.7;;;-5.4;57.2
62980;BME280;49075;53.988;27.678;2024-01-06T13:16:36;984.8;;;-5.4;57.5
62980;BME280;49075;53.988;27.678;2024-01-06T13:21:46;984.9;;;-5.7;57.8
62980;BME280;49075;53.988;27.678;2024-01-06T13:26:36;984.9;;;-5.8;58
62980;BME280;49075;53.988;27.678;2024-01-06T13:31:36;985;;;-6.2;58.5
62980;BME280;49075;53.988;27.678;2024-01-06T13:37:12;985.1;;;-6.4;59.4
62980;BME280;49075;53.988;27.678;2024-01-06T13:41:36;985.2;;;-6.7;60
62980;BME280;49075;53.988;27.678;2024-01-06T13:46:36;985.3;;;-6.7;60.1
62980;BME280;49075;53.988;27.678;2024-01-06T13:51:56;985.4;;;-6.8;60
62980;BME280;49075;53.988;27.678;2024-01-06T13:57:18;985.4;;;-6.8;60.2
62980;BME280;49075;53.988;27.678;2024-01-06T14:01:56;985.5;;;-6.9;60.3
62980;BME280;49075;53.988;27.678;2024-01-06T14:06:36;985.4;;;-7.1;60.8
62980;BME280;49075;53.988;27.678;2024-01-06T14:12:10;985.5;;;-7.1;60.3
62980;BME280;49075;53.988;27.678;2024-01-06T14:16:36;985.5;;;-7.3;60.6
62980;BME280;49075;53.988;27.678;2024-01-06T14:21:44;985.6;;;-7.5;60.4
62980;BME280;49075;53.988;27.678;2024-01-06T14:26:36;985.6;;;-7.7;60.4
62980;BME280;49075;53.988;27.678;2024-01-06T14:31:56;985.7;;;-7.9;60.9
62980;BME280;49075;53.988;27.678;2024-01-06T14:36:48;985.7;;;-8.1;61.1
62980;BME280;49075;53.988;27.678;2024-01-06T14:41:36;985.8;;;-8;60.9
62980;BME280;49075;53.988;27.678;2024-01-06T14:47:05;985.8;;;-8.1;61.3
62980;BME280;49075;53.988;27.678;2024-01-06T14:51:48;985.9;;;-8.3;61.6
62980;BME280;49075;53.988;27.678;2024-01-06T14:56:37;985.9;;;-8.3;61.6
62980;BME280;49075;53.988;27.678;2024-01-06T15:01:36;985.9;;;-8.4;61.7
62980;BME280;49075;53.988;27.678;2024-01-06T15:06:54;985.9;;;-8.2;61
62980;BME280;49075;53.988;27.678;2024-01-06T15:11:44;986;;;-8.4;61.1
62980;BME280;49075;53.988;27.678;2024-01-06T15:16:36;986;;;-8.4;60.9
62980;BME280;49075;53.988;27.678;2024-01-06T15:21:36;986;;;-8.5;60.3
62980;BME280;49075;53.988;27.678;2024-01-06T15:26:48;986;;;-8.4;60.3
62980;BME280;49075;53.988;27.678;2024-01-06T15:31:48;986;;;-8.5;60
62980;BME280;49075;53.988;27.678;2024-01-06T15:36:56;986;;;-8.5;60.2
62980;BME280;49075;53.988;27.678;2024-01-06T15:41:46;986;;;-8.5;60.2
62980;BME280;49075;53.988;27.678;2024-01-06T15:46:48;986.1;;;-8.5;60.2
62980;BME280;49075;53.988;27.678;2024-01-06T15:51:46;986.1;;;-8.7;60.3
62980;BME280;49075;53.988;27.678;2024-01-06T15:56:36;986.1;;;-8.7;60.4
62980;BME280;49075;53.988;27.678;2024-01-06T16:01:56;986.2;;;-8.7;60
62980;BME280;49075;53.988;27.678;2024-01-06T16:06:48;986.2;;;-8.9;60.1
62980;BME280;49075;53.988;27.678;2024-01-06T16:11:48;986.3;;;-9.1;60.5
62980;BME280;49075;53.988;27.678;2024-01-06T16:16:36;986.4;;;-9.2;60.5
62980;BME280;49075;53.988;27.678;2024-01-06T16:21:36;986.4;;;-9.2;60.4
62980;BME280;49075;53.988;27.678;2024-01-06T16:27:08;986.4;;;-9.3;60.1
62980;BME280;49075;53.988;27.678;2024-01-06T16:31:58;986.5;;;-9.4;59.7
62980;BME280;49075;53.988;27.678;2024-01-06T16:36:48;986.6;;;-9.3;59.9
62980;BME280;49075;53.988;27.678;2024-01-06T16:41:48;986.6;;;-9.4;60.5
62980;BME280;49075;53.988;27.678;2024-01-06T16:46:36;986.7;;;-9.5;61.3
62980;BME280;49075;53.988;27.678;2024-01-06T16:51:36;986.8;;;-9.6;61.7
62980;BME280;49075;53.988;27.678;2024-01-06T16:57:32;986.9;;;-9.6;61.8
62980;BME280;49075;53.988;27.678;2024-01-06T17:02:08;987;;;-9.7;62
62980;BME280;49075;53.988;27.678;2024-01-06T17:06:44;987;;;-9.8;62.1
62980;BME280;49075;53.988;27.678;2024-01-06T17:11:36;987;;;-9.8;62.1
62980;BME280;49075;53.988;27.678;2024-01-06T17:16:54;987.1;;;-9.9;62.3
62980;BME280;49075;53.988;27.678;2024-01-06T17:21:36;987.2;;;-9.8;62.1
62980;BME280;49075;53.988;27.678;2024-01-06T17:26:36;987.3;;;-9.9;61.6
62980;BME280;49075;53.988;27.678;2024-01-06T17:31:48;987.4;;;-10.1;61.6
62980;BME280;49075;53.988;27.678;2024-01-06T17:37:32;987.5;;;-10.1;61.5
62980;BME280;49075;53.988;27.678;2024-01-06T17:41:36;987.6;;;-10.2;61.5
62980;BME280;49075;53.988;27.678;2024-01-06T17:46:48;987.6;;;-10.2;61.5
62980;BME280;49075;53.988;27.678;2024-01-06T17:51:36;987.7;;;-10.4;60.9
62980;BME280;49075;53.988;27.678;2024-01-06T17:56:48;987.8;;;-10.5;60.4
62980;BME280;49075;53.988;27.678;2024-01-06T18:01:36;987.9;;;-10.4;60.7
62980;BME280;49075;53.988;27.678;2024-01-06T18:06:36;988;;;-10.4;60.4
62980;BME280;49075;53.988;27.678;2024-01-06T18:11:58;988;;;-10.4;60.4
62980;BME280;49075;53.988;27.678;2024-01-06T18:16:56;988.1;;;-10.4;60.4
62980;BME280;49075;53.988;27.678;2024-01-06T18:21:48;988.2;;;-10.3;60.5
62980;BME280;49075;53.988;27.678;2024-01-06T18:26:48;988.2;;;-10.3;60.4
62980;BME280;49075;53.988;27.678;2024-01-06T18:31:44;988.2;;;-10.3;60.5
62980;BME280;49075;53.988;27.678;2024-01-06T18:36:36;988.3;;;-10.4;60.5
62980;BME280;49075;53.988;27.678;2024-01-06T18:42:32;988.3;;;-10.4;60.6
62980;BME280;49075;53.988;27.678;2024-01-06T18:46:36;988.3;;;-10.7;61
62980;BME280;49075;53.988;27.678;2024-01-06T18:51:36;988.2;;;-11.2;62
62980;BME280;49075;53.988;27.678;2024-01-06T18:57:08;988.3;;;-11.5;61.8
62980;BME280;49075;53.988;27.678;2024-01-06T19:01:48;988.5;;;-11.8;61.3
62980;BME280;49075;53.988;27.678;2024-01-06T19:06:48;988.6;;;-12;60.9
62980;BME280;49075;53.988;27.678;2024-01-06T19:11:44;988.5;;;-12.3;60.3
62980;BME280;49075;53.988;27.678;2024-01-06T19:16:49;988.6;;;-12.2;60.5
62980;BME280;49075;53.988;27.678;2024-01-06T19:21:36;988.7;;;-12.4;60.1
62980;BME280;49075;53.988;27.678;2024-01-06T19:26:48;988.7;;;-12.5;60
62980;BME280;49075;53.988;27.678;2024-01-06T19:31:48;988.8;;;-12.6;59.7
62980;BME280;49075;53.988;27.678;2024-01-06T19:36:58;988.9;;;-12.9;59.9
62980;BME280;49075;53.988;27.678;2024-01-06T19:42:20;988.9;;;-13;60.2
62980;BME280;49075;53.988;27.678;2024-01-06T19:46:36;989;;;-13.1;60.2
62980;BME280;49075;53.988;27.678;2024-01-06T19:51:36;989;;;-13.2;60.4
62980;BME280;49075;53.988;27.678;2024-01-06T19:56:44;988.9;;;-13.3;60.5
62980;BME280;49075;53.988;27.678;2024-01-06T20:01:56;989;;;-13.6;61.1
62980;BME280;49075;53.988;27.678;2024-01-06T20:06:56;989.1;;;-13.7;61.5
62980;BME280;49075;53.988;27.678;2024-01-06T20:11:36;989.1;;;-13.7;61.5
62980;BME280;49075;53.988;27.678;2024-01-06T20:16:48;989.1;;;-13.9;61.8
62980;BME280;49075;53.988;27.678;2024-01-06T20:22:08;989.2;;;-14;61.9
62980;BME280;49075;53.988;27.678;2024-01-06T20:27:18;989.2;;;-14.2;62.3
62980;BME280;49075;53.988;27.678;2024-01-06T20:32:22;989.2;;;-14.3;62.5
62980;BME280;49075;53.988;27.678;2024-01-06T20:36:36;989.3;;;-14.5;63
62980;BME280;49075;53.988;27.678;2024-01-06T20:41:54;989.4;;;-14.5;62.9
62980;BME280;49075;53.988;27.678;2024-01-06T20:46:46;989.4;;;-14.7;63.4
62980;BME280;49075;53.988;27.678;2024-01-06T20:51:44;989.4;;;-14.7;63.3
62980;BME280;49075;53.988;27.678;2024-01-06T20:56:48;989.4;;;-14.7;63.1
62980;BME280;49075;53.988;27.678;2024-01-06T21:01:44;989.4;;;-14.7;63.1
62980;BME280;49075;53.988;27.678;2024-01-06T21:07:24;989.5;;;-14.8;63.2
62980;BME280;49075;53.988;27.678;2024-01-06T21:11:48;989.5;;;-14.9;63.4
62980;BME280;49075;53.988;27.678;2024-01-06T21:16:38;989.5;;;-14.9;63.1
62980;BME280;49075;53.988;27.678;2024-01-06T21:21:36;989.5;;;-15;63.2
62980;BME280;49075;53.988;27.678;2024-01-06T21:27:08;989.6;;;-15;63.1
62980;BME280;49075;53.988;27.678;2024-01-06T21:31:37;989.6;;;-15.1;63.2
62980;BME280;49075;53.988;27.678;2024-01-06T21:36:56;989.7;;;-15.3;63.5
62980;BME280;49075;53.988;27.678;2024-01-06T21:42:03;989.7;;;-15.4;63.8
62980;BME280;49075;53.988;27.678;2024-01-06T21:46:36;989.8;;;-15.5;63.7
62980;BME280;49075;53.988;27.678;2024-01-06T21:51:49;989.8;;;-15.6;63.9
62980;BME280;49075;53.988;27.678;2024-01-06T21:56:48;989.8;;;-15.6;63.5
62980;BME280;49075;53.988;27.678;2024-01-06T22:01:48;990;;;-15.8;63.9
62980;BME280;49075;53.988;27.678;2024-01-06T22:06:36;990;;;-15.9;64.2
62980;BME280;49075;53.988;27.678;2024-01-06T22:11:36;990.1;;;-16;64.3
62980;BME280;49075;53.988;27.678;2024-01-06T22:17:08;990.1;;;-16.1;64.3
62980;BME280;49075;53.988;27.678;2024-01-06T22:21:38;990.2;;;-16.1;64.4
62980;BME280;49075;53.988;27.678;2024-01-06T22:26:36;990.2;;;-16.1;63.9
62980;BME280;49075;53.988;27.678;2024-01-06T22:31:44;990.2;;;-16.1;63.9
62980;BME280;49075;53.988;27.678;2024-01-06T22:36:46;990.2;;;-16.1;63.7
62980;BME280;49075;53.988;27.678;2024-01-06T22:41:56;990.2;;;-16.1;63.9
62980;BME280;49075;53.988;27.678;2024-01-06T22:46:36;990.2;;;-16.2;63.9
62980;BME280;49075;53.988;27.678;2024-01-06T22:52:08;990.2;;;-16.3;64.2
62980;BME280;49075;53.988;27.678;2024-01-06T22:56:36;990.2;;;-16.3;64
62980;BME280;49075;53.988;27.678;2024-01-06T23:01:56;990.2;;;-16.3;64.2
62980;BME280;49075;53.988;27.678;2024-01-06T23:07:06;990.2;;;-16.4;64.1
62980;BME280;49075;53.988;27.678;2024-01-06T23:12:10;990.1;;;-16.4;64.3
62980;BME280;49075;53.988;27.678;2024-01-06T23:16:48;990.2;;;-16.5;64.4
62980;BME280;49075;53.988;27.678;2024-01-06T23:21:48;990.3;;;-16.6;64.6
62980;BME280;49075;53.988;27.678;2024-01-06T23:26:44;990.4;;;-16.5;64.3
62980;BME280;49075;53.988;27.678;2024-01-06T23:31:56;990.4;;;-16.5;64.3
62980;BME280;49075;53.988;27.678;2024-01-06T23:36:48;990.5;;;-16.5;64.3
62980;BME280;49075;53.988;27.678;2024-01-06T23:41:48;990.6;;;-16.5;64.2
62980;BME280;49075;53.988;27.678;2024-01-06T23:46:48;990.6;;;-16.5;64.1
62980;BME280;49075;53.988;27.678;2024-01-06T23:52:05;990.7;;;-16.5;63.8
62980;BME280;49075;53.988;27.678;2024-01-06T23:57:08;990.7;;;-16.6;63.9
